createdAt,value
2023-08-13T00:01:55.042Z,17.17
2023-08-13T00:04:22.047Z,16.38
2023-08-13T00:06:49.117Z,17.88
2023-08-13T00:09:16.247Z,21.98
2023-08-13T00:11:43.310Z,20.80
2023-08-13T00:14:10.287Z,19.42
2023-08-13T00:16:37.263Z,22.10
2023-08-13T00:19:04.469Z,24.35
2023-08-13T00:21:34.317Z,20.40
2023-08-13T00:24:01.387Z,23.73
2023-08-13T00:26:28.306Z,22.65
2023-08-13T00:28:55.245Z,33.60
2023-08-13T00:31:22.676Z,24.25
2023-08-13T00:33:49.623Z,31.40
2023-08-13T00:36:16.725Z,24.42
2023-08-13T00:38:43.602Z,21.45
2023-08-13T00:41:10.570Z,27.92
2023-08-13T00:43:38.432Z,23.08
2023-08-13T00:46:05.982Z,22.42
2023-08-13T00:48:33.485Z,28.65
2023-08-13T00:51:01.394Z,23.80
2023-08-13T00:53:28.593Z,22.15
2023-08-13T00:55:56.811Z,17.40
2023-08-13T00:58:24.474Z,15.52
2023-08-13T01:00:51.463Z,17.77
2023-08-13T01:03:18.375Z,18.40
2023-08-13T01:06:06.754Z,15.10
2023-08-13T01:09:08.777Z,17.08
2023-08-13T01:12:09.194Z,17.35
2023-08-13T01:14:55.346Z,15.35
2023-08-13T01:17:26.139Z,16.92
2023-08-13T01:19:53.373Z,18.98
2023-08-13T01:22:28.651Z,16.55
2023-08-13T01:24:57.404Z,12.90
2023-08-13T01:27:42.012Z,13.00
2023-08-13T01:30:21.377Z,13.55
2023-08-13T01:33:14.734Z,13.98
2023-08-13T01:35:44.571Z,17.63
2023-08-13T01:38:12.534Z,19.75
2023-08-13T01:40:39.471Z,19.83
2023-08-13T01:43:06.556Z,15.57
2023-08-13T01:45:33.431Z,16.80
2023-08-13T01:48:00.463Z,18.25
2023-08-13T01:50:28.225Z,16.75
2023-08-13T01:52:55.135Z,13.32
2023-08-13T01:55:22.429Z,13.55
2023-08-13T01:57:49.357Z,11.40
2023-08-13T02:00:16.535Z,13.15
2023-08-13T02:02:43.434Z,11.77
2023-08-13T02:05:10.531Z,16.70
2023-08-13T02:07:37.415Z,11.88
2023-08-13T02:10:04.734Z,14.32
2023-08-13T02:12:31.706Z,13.35
2023-08-13T02:14:58.813Z,12.05
2023-08-13T02:17:25.793Z,15.05
2023-08-13T02:19:52.697Z,14.65
2023-08-13T02:22:19.619Z,11.55
2023-08-13T02:24:46.633Z,10.77
2023-08-13T02:27:13.602Z,14.18
2023-08-13T02:29:40.544Z,13.90
2023-08-13T02:32:07.502Z,11.50
2023-08-13T02:34:46.168Z,14.50
2023-08-13T02:37:13.452Z,11.73
2023-08-13T02:39:40.768Z,11.05
2023-08-13T02:42:07.777Z,13.10
2023-08-13T02:44:34.685Z,13.95
2023-08-13T02:47:01.587Z,12.23
2023-08-13T02:49:28.525Z,11.10
2023-08-13T02:51:55.444Z,11.18
2023-08-13T02:54:22.411Z,12.52
2023-08-13T02:56:49.309Z,12.75
2023-08-13T02:59:16.318Z,8.45
2023-08-13T03:01:45.991Z,9.57
2023-08-13T03:04:13.126Z,7.18
2023-08-13T03:06:40.158Z,9.50
2023-08-13T03:09:07.521Z,8.80
2023-08-13T03:11:34.451Z,11.15
2023-08-13T03:14:01.374Z,9.40
2023-08-13T03:16:28.320Z,11.85
2023-08-13T03:18:55.244Z,9.13
2023-08-13T03:21:23.621Z,10.00
2023-08-13T03:23:50.588Z,9.45
2023-08-13T03:26:17.575Z,18.45
2023-08-13T03:28:44.506Z,10.95
2023-08-13T03:31:11.554Z,12.90
2023-08-13T03:33:38.604Z,12.15
2023-08-13T03:36:05.991Z,8.02
2023-08-13T03:38:32.926Z,16.77
2023-08-13T03:40:59.832Z,7.88
2023-08-13T03:43:26.731Z,7.20
2023-08-13T03:45:53.668Z,10.25
2023-08-13T03:48:20.732Z,12.55
2023-08-13T03:50:47.769Z,9.27
2023-08-13T03:53:14.682Z,7.53
2023-08-13T03:55:41.593Z,8.40
2023-08-13T03:58:08.849Z,8.50
2023-08-13T04:00:35.796Z,13.20
2023-08-13T04:03:15.344Z,11.13
2023-08-13T04:05:47.047Z,11.68
2023-08-13T04:08:14.008Z,8.10
2023-08-13T04:10:41.302Z,14.32
2023-08-13T04:13:08.295Z,16.52
2023-08-13T04:15:35.196Z,7.63
2023-08-13T04:18:02.179Z,11.70
2023-08-13T04:20:29.192Z,9.68
2023-08-13T04:22:56.081Z,8.57
2023-08-13T04:25:23.042Z,9.93
2023-08-13T04:27:50.023Z,11.38
2023-08-13T04:30:17.142Z,11.18
2023-08-13T04:32:57.291Z,9.68
2023-08-13T04:35:25.119Z,10.25
2023-08-13T04:37:52.354Z,9.70
2023-08-13T04:40:19.878Z,9.35
2023-08-13T04:42:46.867Z,12.07
2023-08-13T04:45:14.334Z,19.77
2023-08-13T04:47:41.678Z,14.27
2023-08-13T04:50:10.449Z,12.10
2023-08-13T04:52:37.685Z,11.98
2023-08-13T04:55:05.268Z,13.98
2023-08-13T04:57:32.704Z,16.08
2023-08-13T05:00:00.884Z,13.57
2023-08-13T05:02:28.534Z,14.60
2023-08-13T05:04:55.731Z,22.77
2023-08-13T05:07:24.040Z,21.60
2023-08-13T05:09:51.132Z,28.83
2023-08-13T05:12:18.394Z,23.73
2023-08-13T05:14:45.564Z,21.02
2023-08-13T05:17:20.836Z,25.77
2023-08-13T05:19:53.500Z,14.60
2023-08-13T05:22:20.493Z,14.32
2023-08-13T05:24:48.547Z,11.43
2023-08-13T05:27:15.830Z,15.55
2023-08-13T05:29:42.731Z,15.52
2023-08-13T05:32:10.991Z,21.95
2023-08-13T05:34:37.835Z,12.45
2023-08-13T05:37:04.982Z,16.27
2023-08-13T05:39:31.899Z,18.00
2023-08-13T05:41:58.832Z,22.40
2023-08-13T05:44:25.781Z,18.55
2023-08-13T05:46:52.721Z,21.70
2023-08-13T05:49:19.646Z,22.98
2023-08-13T05:51:49.377Z,21.02
2023-08-13T05:54:17.168Z,18.63
2023-08-13T05:56:44.196Z,25.63
2023-08-13T05:59:11.426Z,32.95
2023-08-13T06:01:38.705Z,20.67
2023-08-13T06:04:06.086Z,28.85
2023-08-13T06:06:33.218Z,13.45
2023-08-13T06:09:00.168Z,17.88
2023-08-13T06:11:27.123Z,17.42
2023-08-13T06:13:54.039Z,18.77
2023-08-13T06:16:21.020Z,16.75
2023-08-13T06:18:47.984Z,16.80
2023-08-13T06:21:15.012Z,14.30
2023-08-13T06:23:42.011Z,17.42
2023-08-13T06:26:08.999Z,14.82
2023-08-13T06:28:36.261Z,12.55
2023-08-13T06:31:03.620Z,14.23
2023-08-13T06:33:30.898Z,15.63
2023-08-13T06:35:57.773Z,17.90
2023-08-13T06:38:26.950Z,15.60
2023-08-13T06:40:53.824Z,15.27
2023-08-13T06:43:20.696Z,15.32
2023-08-13T06:45:48.033Z,11.93
2023-08-13T06:48:16.382Z,12.25
2023-08-13T06:50:43.411Z,9.23
2023-08-13T06:53:10.373Z,9.32
2023-08-13T06:55:37.612Z,7.60
2023-08-13T06:58:05.552Z,9.30
2023-08-13T07:00:39.803Z,10.18
2023-08-13T07:03:07.639Z,9.02
2023-08-13T07:05:36.294Z,6.85
2023-08-13T07:08:03.898Z,8.10
2023-08-13T07:10:31.025Z,6.38
2023-08-13T07:12:58.316Z,8.13
2023-08-13T07:15:25.365Z,6.68
2023-08-13T07:17:53.095Z,7.32
2023-08-13T07:20:20.090Z,8.52
2023-08-13T07:22:48.558Z,6.90
2023-08-13T07:25:15.575Z,4.72
2023-08-13T07:27:44.283Z,7.55
2023-08-13T07:30:13.336Z,5.75
2023-08-13T07:32:42.139Z,5.22
2023-08-13T07:35:09.507Z,6.15
2023-08-13T07:37:36.644Z,4.50
2023-08-13T07:40:09.035Z,4.88
2023-08-13T07:42:38.483Z,3.25
2023-08-13T07:45:07.766Z,4.47
2023-08-13T07:47:39.097Z,4.32
2023-08-13T07:50:08.352Z,5.68
2023-08-13T07:52:36.450Z,6.53
2023-08-13T07:55:04.676Z,5.18
2023-08-13T07:57:35.048Z,4.78
2023-08-13T08:00:02.193Z,5.93
2023-08-13T08:02:29.221Z,5.25
2023-08-13T08:04:56.141Z,1.63
2023-08-13T08:07:23.748Z,2.85
2023-08-13T08:09:50.655Z,7.25
2023-08-13T08:12:18.005Z,5.80
2023-08-13T08:14:45.049Z,3.60
2023-08-13T08:17:12.022Z,4.20
2023-08-13T08:19:39.310Z,2.33
2023-08-13T08:22:06.244Z,5.63
2023-08-13T08:24:34.734Z,5.05
2023-08-13T08:27:01.829Z,3.60
2023-08-13T08:29:28.744Z,5.97
2023-08-13T08:31:55.691Z,6.30
2023-08-13T08:34:22.704Z,3.83
2023-08-13T08:36:49.583Z,4.78
2023-08-13T08:39:16.494Z,3.40
2023-08-13T08:41:48.270Z,3.58
2023-08-13T08:44:22.020Z,4.88
2023-08-13T08:46:51.567Z,4.47
2023-08-13T08:49:22.675Z,3.22
2023-08-13T08:51:51.460Z,4.38
2023-08-13T08:54:22.087Z,5.18
2023-08-13T08:56:49.080Z,4.53
2023-08-13T08:59:16.108Z,5.10
2023-08-13T09:01:43.182Z,3.35
2023-08-13T09:04:10.243Z,3.55
2023-08-13T09:06:56.275Z,5.30
2023-08-13T09:09:24.536Z,5.90
2023-08-13T09:11:52.980Z,7.55
2023-08-13T09:14:21.024Z,7.55
2023-08-13T09:16:50.324Z,4.35
2023-08-13T09:19:18.994Z,7.15
2023-08-13T09:21:59.095Z,4.60
2023-08-13T09:24:39.963Z,4.03
2023-08-13T09:27:09.573Z,4.88
2023-08-13T09:29:38.790Z,4.53
2023-08-13T09:32:06.825Z,4.82
2023-08-13T09:34:37.002Z,5.25
2023-08-13T09:37:04.097Z,6.03
2023-08-13T09:39:32.501Z,3.85
2023-08-13T09:42:02.144Z,7.78
2023-08-13T09:44:31.276Z,5.93
2023-08-13T09:47:09.780Z,5.40
2023-08-13T09:49:37.757Z,6.00
2023-08-13T09:52:10.705Z,5.20
2023-08-13T09:54:51.263Z,5.93
2023-08-13T09:57:21.248Z,7.53
2023-08-13T09:59:50.700Z,6.65
2023-08-13T10:02:20.198Z,5.75
2023-08-13T10:04:48.037Z,2.88
2023-08-13T10:07:15.097Z,2.97
2023-08-13T10:09:43.080Z,5.70
2023-08-13T10:12:12.997Z,4.32
2023-08-13T10:14:40.704Z,4.55
2023-08-13T10:17:08.709Z,7.40
2023-08-13T10:19:39.984Z,6.13
2023-08-13T10:22:10.597Z,4.25
2023-08-13T10:24:38.775Z,5.40
2023-08-13T10:27:05.808Z,4.43
2023-08-13T10:29:38.856Z,6.18
2023-08-13T10:32:17.823Z,7.75
2023-08-13T10:34:47.882Z,3.95
2023-08-13T10:37:18.127Z,7.80
2023-08-13T10:39:48.134Z,4.60
2023-08-13T10:42:34.383Z,4.53
2023-08-13T10:45:04.371Z,3.85
2023-08-13T10:47:49.406Z,7.10
2023-08-13T10:50:43.869Z,5.22
2023-08-13T10:53:20.653Z,4.63
2023-08-13T10:55:53.417Z,5.07
2023-08-13T10:58:36.300Z,7.00
2023-08-13T11:01:21.620Z,4.93
2023-08-13T11:03:55.397Z,6.10
2023-08-13T11:06:25.248Z,6.22
2023-08-13T11:08:52.357Z,4.50
2023-08-13T11:11:20.963Z,5.97
2023-08-13T11:13:49.838Z,4.38
2023-08-13T11:16:17.250Z,4.95
2023-08-13T11:18:45.452Z,4.22
2023-08-13T11:21:12.920Z,4.13
2023-08-13T11:23:40.131Z,6.03
2023-08-13T11:26:07.321Z,5.03
2023-08-13T11:28:34.665Z,4.68
2023-08-13T11:31:01.896Z,4.55
2023-08-13T11:33:28.994Z,3.05
2023-08-13T11:35:57.852Z,4.60
2023-08-13T11:38:25.159Z,3.70
2023-08-13T11:40:52.141Z,4.95
2023-08-13T11:43:20.243Z,4.80
2023-08-13T11:45:52.340Z,3.95
2023-08-13T11:48:22.657Z,8.43
2023-08-13T11:51:20.528Z,8.65
2023-08-13T11:53:50.221Z,5.82
2023-08-13T11:56:18.943Z,5.43
2023-08-13T11:58:46.368Z,5.70
2023-08-13T12:01:15.313Z,4.78
2023-08-13T12:03:44.904Z,5.80
2023-08-13T12:06:13.051Z,5.38
2023-08-13T12:08:48.299Z,5.13
2023-08-13T12:11:16.640Z,4.68
2023-08-13T12:13:43.888Z,5.88
2023-08-13T12:16:11.688Z,5.18
2023-08-13T12:18:38.824Z,6.68
2023-08-13T12:21:05.811Z,4.93
2023-08-13T12:23:33.119Z,4.43
2023-08-13T12:26:02.840Z,5.32
2023-08-13T12:28:30.361Z,3.58
2023-08-13T12:30:57.376Z,6.15
2023-08-13T12:33:24.356Z,5.25
2023-08-13T12:35:51.429Z,3.80
2023-08-13T12:38:18.409Z,3.45
2023-08-13T12:40:45.850Z,3.72
2023-08-13T12:43:12.795Z,3.60
2023-08-13T12:45:39.740Z,4.35
2023-08-13T12:48:07.029Z,3.17
2023-08-13T12:50:34.080Z,4.30
2023-08-13T12:53:01.904Z,4.25
2023-08-13T12:55:29.014Z,4.60
2023-08-13T12:57:56.054Z,3.45
2023-08-13T13:00:23.046Z,3.95
2023-08-13T13:02:50.006Z,4.38
2023-08-13T13:05:17.034Z,4.18
2023-08-13T13:07:43.943Z,6.13
2023-08-13T13:10:10.932Z,4.28
2023-08-13T13:12:39.608Z,6.82
2023-08-13T13:15:07.421Z,2.78
2023-08-13T13:17:34.499Z,5.82
2023-08-13T13:20:07.374Z,5.40
2023-08-13T13:22:34.453Z,3.80
2023-08-13T13:25:01.500Z,4.60
2023-08-13T13:27:28.429Z,4.22
2023-08-13T13:29:55.337Z,7.03
2023-08-13T13:32:22.262Z,3.13
2023-08-13T13:34:49.186Z,4.35
2023-08-13T13:37:16.177Z,4.07
2023-08-13T13:39:43.842Z,3.70
2023-08-13T13:42:11.484Z,2.47
2023-08-13T13:44:38.377Z,4.28
2023-08-13T13:47:05.410Z,4.30
2023-08-13T13:49:32.483Z,4.00
2023-08-13T13:51:59.759Z,4.35
2023-08-13T13:54:29.526Z,4.20
2023-08-13T13:56:56.896Z,3.95
2023-08-13T13:59:24.701Z,2.22
2023-08-13T14:01:52.810Z,4.80
2023-08-13T14:04:20.157Z,3.75
2023-08-13T14:06:47.120Z,4.68
2023-08-13T14:09:16.875Z,7.30
2023-08-13T14:11:43.843Z,3.40
2023-08-13T14:14:10.851Z,5.13
2023-08-13T14:16:37.920Z,3.40
2023-08-13T14:19:05.090Z,3.10
2023-08-13T14:21:32.031Z,3.63
2023-08-13T14:23:58.934Z,5.43
2023-08-13T14:26:25.864Z,3.53
2023-08-13T14:28:52.898Z,3.13
2023-08-13T14:31:19.858Z,3.35
2023-08-13T14:33:46.879Z,4.13
2023-08-13T14:36:13.956Z,3.58
2023-08-13T14:38:40.886Z,4.70
2023-08-13T14:41:07.792Z,4.13
2023-08-13T14:43:35.045Z,4.32
2023-08-13T14:46:02.033Z,4.05
2023-08-13T14:48:29.030Z,4.90
2023-08-13T14:50:55.947Z,2.67
2023-08-13T14:53:22.889Z,3.80
2023-08-13T14:55:49.948Z,3.92
2023-08-13T14:58:16.831Z,3.53
2023-08-13T15:00:43.870Z,3.20
2023-08-13T15:03:10.952Z,4.70
2023-08-13T15:05:38.656Z,3.00
2023-08-13T15:08:05.782Z,2.22
2023-08-13T15:10:32.792Z,3.63
2023-08-13T15:12:59.689Z,7.10
2023-08-13T15:15:26.668Z,3.03
2023-08-13T15:17:53.721Z,3.83
2023-08-13T15:20:20.718Z,2.40
2023-08-13T15:22:47.651Z,5.30
2023-08-13T15:25:14.590Z,2.45
2023-08-13T15:27:41.577Z,2.42
2023-08-13T15:30:09.557Z,8.85
2023-08-13T15:32:36.541Z,3.85
2023-08-13T15:35:04.323Z,3.03
2023-08-13T15:37:31.285Z,4.53
2023-08-13T15:39:58.254Z,6.35
2023-08-13T15:42:25.169Z,3.08
2023-08-13T15:44:52.194Z,4.07
2023-08-13T15:47:19.064Z,5.88
2023-08-13T15:49:46.069Z,4.38
2023-08-13T15:52:13.006Z,3.13
2023-08-13T15:54:40.143Z,4.60
2023-08-13T15:57:07.231Z,4.95
2023-08-13T15:59:34.339Z,4.25
2023-08-13T16:02:01.218Z,4.57
2023-08-13T16:04:29.935Z,2.75
2023-08-13T16:06:57.280Z,3.97
2023-08-13T16:09:24.218Z,2.65
2023-08-13T16:11:51.222Z,3.38
2023-08-13T16:14:18.308Z,3.25
2023-08-13T16:16:45.329Z,4.75
2023-08-13T16:19:12.683Z,3.85
2023-08-13T16:21:39.660Z,3.38
2023-08-13T16:24:14.101Z,3.58
2023-08-13T16:26:41.766Z,5.97
2023-08-13T16:29:08.725Z,3.05
2023-08-13T16:31:35.809Z,6.10
2023-08-13T16:34:02.852Z,5.88
2023-08-13T16:36:29.792Z,4.00
2023-08-13T16:38:56.769Z,6.70
2023-08-13T16:41:23.753Z,3.53
2023-08-13T16:43:50.997Z,4.07
2023-08-13T16:46:17.915Z,2.97
2023-08-13T16:48:45.062Z,4.40
2023-08-13T16:51:12.060Z,4.93
2023-08-13T16:53:39.221Z,4.30
2023-08-13T16:56:06.127Z,3.22
2023-08-13T16:58:33.080Z,4.85
2023-08-13T17:00:59.996Z,3.28
2023-08-13T17:03:27.017Z,5.63
2023-08-13T17:05:54.243Z,3.80
2023-08-13T17:08:21.263Z,6.32
2023-08-13T17:10:48.405Z,3.97
2023-08-13T17:13:15.874Z,6.05
2023-08-13T17:15:42.810Z,2.72
2023-08-13T17:18:09.969Z,4.03
2023-08-13T17:20:37.151Z,5.70
2023-08-13T17:23:04.555Z,3.85
2023-08-13T17:25:31.552Z,5.10
2023-08-13T17:27:59.586Z,4.93
2023-08-13T17:30:26.564Z,2.45
2023-08-13T17:32:53.576Z,3.70
2023-08-13T17:35:20.593Z,4.03
2023-08-13T17:37:49.365Z,3.92
2023-08-13T17:40:17.410Z,3.88
2023-08-13T17:42:44.609Z,5.80
2023-08-13T17:45:12.152Z,7.18
2023-08-13T17:47:39.638Z,5.38
2023-08-13T17:50:07.321Z,2.92
2023-08-13T17:52:34.523Z,3.97
2023-08-13T17:55:01.563Z,2.53
2023-08-13T17:57:28.535Z,8.02
2023-08-13T17:59:55.586Z,7.85
2023-08-13T18:02:24.654Z,7.32
2023-08-13T18:04:51.932Z,4.38
2023-08-13T18:07:19.207Z,6.35
2023-08-13T18:09:46.364Z,6.57
2023-08-13T18:12:13.425Z,7.07
2023-08-13T18:14:40.407Z,4.30
2023-08-13T18:17:07.467Z,5.05
2023-08-13T18:19:34.575Z,4.70
2023-08-13T18:22:01.691Z,5.93
2023-08-13T18:24:28.692Z,3.35
2023-08-13T18:26:55.692Z,5.32
2023-08-13T18:29:22.642Z,4.53
2023-08-13T18:31:49.571Z,7.78
2023-08-13T18:34:17.029Z,4.65
2023-08-13T18:36:43.992Z,6.68
2023-08-13T18:39:10.891Z,6.43
2023-08-13T18:41:37.872Z,4.10
2023-08-13T18:44:05.451Z,4.93
2023-08-13T18:46:32.416Z,4.35
2023-08-13T18:49:00.314Z,3.70
2023-08-13T18:51:27.362Z,4.93
2023-08-13T18:53:54.332Z,6.28
2023-08-13T18:56:21.720Z,3.03
2023-08-13T18:58:49.075Z,5.25
2023-08-13T19:01:16.154Z,5.63
2023-08-13T19:03:43.148Z,8.13
2023-08-13T19:06:13.247Z,4.25
2023-08-13T19:08:40.169Z,5.35
2023-08-13T19:11:07.088Z,5.43
2023-08-13T19:13:34.158Z,3.90
2023-08-13T19:16:01.195Z,4.13
2023-08-13T19:18:28.317Z,5.82
2023-08-13T19:20:55.437Z,5.78
2023-08-13T19:23:22.475Z,7.95
2023-08-13T19:25:50.286Z,4.95
2023-08-13T19:28:17.303Z,3.22
2023-08-13T19:30:44.374Z,3.80
2023-08-13T19:33:29.781Z,7.68
2023-08-13T19:35:56.705Z,9.75
2023-08-13T19:38:23.604Z,5.50
2023-08-13T19:40:55.712Z,5.53
2023-08-13T19:43:24.135Z,6.95
2023-08-13T19:45:51.141Z,5.53
2023-08-13T19:48:18.111Z,5.47
2023-08-13T19:50:44.977Z,4.60
2023-08-13T19:53:11.926Z,5.20
2023-08-13T19:55:38.910Z,10.98
2023-08-13T19:58:05.867Z,10.30
2023-08-13T20:00:32.744Z,8.98
2023-08-13T20:02:59.839Z,10.57
2023-08-13T20:05:26.810Z,14.38
2023-08-13T20:07:53.850Z,14.93
2023-08-13T20:10:20.825Z,7.78
2023-08-13T20:12:47.727Z,5.03
2023-08-13T20:15:14.795Z,4.13
2023-08-13T20:17:41.886Z,5.68
2023-08-13T20:20:09.329Z,4.40
2023-08-13T20:22:36.303Z,4.30
2023-08-13T20:25:04.338Z,5.05
2023-08-13T20:27:31.220Z,7.10
2023-08-13T20:29:58.156Z,5.70
2023-08-13T20:32:25.116Z,8.85
2023-08-13T20:34:52.049Z,7.03
2023-08-13T20:37:19.140Z,8.38
2023-08-13T20:39:46.144Z,8.02
2023-08-13T20:42:13.168Z,8.38
2023-08-13T20:44:40.198Z,6.20
2023-08-13T20:47:09.246Z,5.60
2023-08-13T20:49:36.382Z,6.18
2023-08-13T20:52:06.025Z,8.85
2023-08-13T20:54:33.396Z,8.77
2023-08-13T20:57:00.380Z,4.57
2023-08-13T20:59:27.304Z,7.28
2023-08-13T21:01:54.256Z,7.47
2023-08-13T21:04:21.182Z,6.82
2023-08-13T21:06:48.237Z,5.28
2023-08-13T21:09:15.355Z,8.43
2023-08-13T21:11:42.503Z,8.18
2023-08-13T21:14:09.389Z,4.38
2023-08-13T21:16:36.501Z,4.95
2023-08-13T21:19:03.734Z,5.20
2023-08-13T21:21:30.730Z,4.82
2023-08-13T21:23:57.630Z,4.18
2023-08-13T21:26:25.465Z,6.50
2023-08-13T21:28:52.604Z,8.07
2023-08-13T21:31:20.357Z,5.25
2023-08-13T21:33:47.522Z,10.05
2023-08-13T21:36:14.489Z,5.65
2023-08-13T21:38:41.473Z,10.93
2023-08-13T21:41:08.497Z,6.03
2023-08-13T21:43:35.395Z,4.75
2023-08-13T21:46:02.281Z,6.13
2023-08-13T21:48:29.349Z,7.18
2023-08-13T21:50:58.491Z,5.07
2023-08-13T21:53:25.563Z,5.47
2023-08-13T21:55:55.284Z,7.93
2023-08-13T21:58:22.352Z,6.18
2023-08-13T22:00:49.357Z,7.53
2023-08-13T22:03:16.530Z,11.02
2023-08-13T22:05:43.623Z,4.85
2023-08-13T22:08:11.312Z,6.78
2023-08-13T22:10:39.347Z,6.47
2023-08-13T22:13:07.208Z,5.88
2023-08-13T22:15:34.577Z,8.00
2023-08-13T22:18:01.700Z,7.85
2023-08-13T22:20:28.814Z,5.95
2023-08-13T22:22:57.241Z,8.25
2023-08-13T22:25:24.384Z,7.00
2023-08-13T22:27:51.400Z,5.38
2023-08-13T22:30:18.724Z,4.20
2023-08-13T22:32:45.765Z,6.30
2023-08-13T22:35:12.976Z,6.90
2023-08-13T22:37:40.098Z,8.05
2023-08-13T22:40:08.142Z,6.50
2023-08-13T22:42:35.086Z,6.15
2023-08-13T22:45:02.607Z,4.68
2023-08-13T22:47:29.633Z,6.10
2023-08-13T22:49:56.569Z,4.43
2023-08-13T22:52:23.446Z,4.85
2023-08-13T22:54:50.410Z,5.15
2023-08-13T22:57:17.492Z,3.28
2023-08-13T22:59:44.434Z,3.38
2023-08-13T23:02:12.240Z,6.03
2023-08-13T23:04:39.188Z,8.45
2023-08-13T23:07:06.484Z,4.18
2023-08-13T23:09:33.393Z,5.57
2023-08-13T23:12:00.465Z,12.95
2023-08-13T23:14:27.337Z,5.60
2023-08-13T23:16:56.898Z,7.35
2023-08-13T23:19:24.471Z,5.55
2023-08-13T23:21:51.482Z,5.05
2023-08-13T23:24:18.465Z,4.50
2023-08-13T23:26:45.454Z,7.07
2023-08-13T23:29:12.417Z,6.22
2023-08-13T23:31:39.494Z,4.88
2023-08-13T23:34:06.432Z,5.57
2023-08-13T23:36:33.402Z,3.85
2023-08-13T23:39:00.298Z,9.35
2023-08-13T23:41:27.154Z,3.30
2023-08-13T23:43:54.578Z,6.90
2023-08-13T23:46:22.988Z,5.90
2023-08-13T23:48:49.997Z,7.72
2023-08-13T23:51:17.414Z,5.35
2023-08-13T23:53:44.391Z,8.05
2023-08-13T23:56:11.273Z,9.43
2023-08-13T23:58:38.201Z,7.35
